OINN  Noshahr  Airport

Iran

Add Bookmark
ICAO OINN
IATA NSH
Type Airport
Status Operational
Latitude
36° 39' 47" N
36.663300
Longitude
51° 27' 52" E
51.464699
Local (DST + 5) UTC (GMT + 4)
Jul 30, 2015 08:33 Jul 30, 2015 04:03
Sunrise-Sunset Local UTC
Begin Civil Twilight 05:38 01:08
Sunrise 06:07 01:37
Sunset 08:14 15:44
End Civil Twilight 08:42 16:12
VFR
VFR
MVFR
MVFR
IFR
IFR
LIFR
LIFR
Unknown
Unavailable

Current Weather

METAR Observed VFR
OINN 300300Z 18004KT 9999 FEW030 24/20 Q1011 Thu, Jul 30, 2015 @ 03:00 UTC
(1 Hour, 3 Minutes ago)
Visual Flight Rules
Wind Visibility Clouds Conditions
180° at 4 knots (7 kph) 10 km or more
  • Few at 3,000 ft AGL
  • No significant weather
Temperatures Readings Precipitation
Current Temp
24°C
75°F
Dewpoint
20°C
68°F
Humidity 78%
Altimeter 29.85" Hg
Sea Level Pressure 1,011 mb
None Recorded

Additional weather within a 92.6km radius of OINN

Map ICAO Location
OINR 75km W/NW (292°)
VFR
VFR
MVFR
MVFR
IFR
IFR
LIFR
LIFR
Unknown
Unavailable
-
-

CheckWX.com is intended as a tool to help pilots better visualize weather data. It is not intended as a substitute for an official weather briefing obtained from a Flight Service Station. CheckWX.com does not meet the FAA requirements for an official pre-flight weather briefing. Therefore, it's important that pilots still call and obtain an official FSS pre-flight weather briefing.

© 2007-2015 CheckWX.com
04:03:47 UTC